Nearby METAR Reports

 

KBVO - Bartlesville, Oklahoma, USA
Distance from station: WNW 10mi, 16km
Updated: Fri, 19-Jan-2018 2:53am CST
Clear
Clear
 Wind from S
Wind: S 8 mph , 13 km/h
Temperature: 30°F , -1°C
Wind Chill: 22°F , -6°C
Dew Point: 14°F , -10°C
Humidity: 51%
Barometer: 30.13 inHg , 1020.3 hPa
Clouds: Clear
Visibility: 10 miles , 16 km
2018/01/19 08:53 KBVO 190853Z AUTO 19007KT 10SM CLR M01/M10 A3013 RMK AO2 SLP203 T10061100 56015
KCFV - Coffeyville, Kansas, USA
Distance from station: NNE 31mi, 49km
Updated: Fri, 19-Jan-2018 2:52am CST
Clear
Clear
 Wind from S
Wind: S 14 mph , 22 km/h
Temperature: 32°F , 0°C
Wind Chill: 22°F , -6°C
Dew Point: 16°F , -9°C
Humidity: 51%
Barometer: 30.12 inHg , 1020 hPa
Clouds: Clear
Visibility: 10 miles , 16 km
2018/01/19 08:52 KCFV 190852Z AUTO 19012KT 10SM CLR 00/M09 A3012 RMK AO2 SLP203 T00001094 56014
 
KIDP - Independence, Kansas, USA
Distance from station: N 32mi, 52km
Updated: Fri, 19-Jan-2018 3:35am CST
Clear
Clear
 Wind from S
Wind: S 14 mph , 22 km/h
Temperature: 28°F , -2°C
Wind Chill: 17°F , -8°C
Dew Point: 16°F , -9°C
Humidity: 59%
Barometer: 30.10 inHg , 1019.3 hPa
Clouds: Clear
Visibility: 10 miles , 16 km
2018/01/19 09:35 KIDP 190935Z AUTO 19012KT 10SM CLR M02/M09 A3010 RMK AO2 T10151091
KGCM - Claremore, Oklahoma, USA
Distance from station: SE 35mi, 56km
Updated: Fri, 19-Jan-2018 3:35am CST
Clear
Clear
 Wind from S
Wind: S 8 mph , 13 km/h
Temperature: 30°F , -1°C
Wind Chill: 22°F , -6°C
Dew Point: 16°F , -9°C
Humidity: 55%
Barometer: 30.18 inHg , 1022 hPa
Clouds: Clear
Visibility: 10 miles , 16 km
2018/01/19 09:35 KGCM 190935Z AUTO 18007KT 10SM CLR M01/M09 A3018 RMK AO2
 
KTUL - Tulsa, Oklahoma, USA
Distance from station: S 35mi, 56km
Updated: Fri, 19-Jan-2018 2:53am CST
Mostly cloudy
Mostly cloudy
 Wind from SSE
Wind: SSE 8 mph , 13 km/h
Temperature: 30°F , -1°C
Wind Chill: 22°F , -6°C
Dew Point: 16°F , -9°C
Humidity: 55%
Barometer: 30.15 inHg , 1021 hPa
Clouds: Mostly cloudy
Visibility: 10 miles , 16 km
Cloud details: Mostly cloudy 25000 ft
2018/01/19 08:53 KTUL 190853Z 16007KT 10SM BKN250 M01/M09 A3015 RMK AO2 SLP211 T10061094 56017
KRVS - Tulsa, Oklahoma, USA
Distance from station: S 46mi, 74km
Updated: Fri, 19-Jan-2018 2:53am CST
Clear
Clear
 Wind from S
Wind: S 5 mph , 7 km/h
Temperature: 30°F , -1°C
Wind Chill: 25°F , -4°C
Dew Point: 14°F , -10°C
Humidity: 51%
Barometer: 30.16 inHg , 1021.3 hPa
Clouds: Clear
Visibility: 10 miles , 16 km
2018/01/19 08:53 KRVS 190853Z AUTO 19004KT 10SM CLR M01/M10 A3016 RMK AO2 SLP221 T10111100 56019
 
KPPF - Parsons, Kansas, USA
Distance from station: NNE 48mi, 76km
Updated: Fri, 19-Jan-2018 2:52am CST
Clear
Clear
 Wind from S
Wind: S 10 mph , 17 km/h
Temperature: 30°F , -1°C
Wind Chill: 21°F , -6°C
Dew Point: 16°F , -9°C
Humidity: 55%
Barometer: 30.10 inHg , 1019.3 hPa
Clouds: Clear
Visibility: 10 miles , 16 km
2018/01/19 08:52 KPPF 190852Z AUTO 18009KT 10SM CLR M01/M09 A3010 RMK AO2 SLP197 T10061089 56016
KGMJ - Grove, Oklahoma, USA
Distance from station: E 63mi, 101km
Updated: Fri, 19-Jan-2018 3:35am CST
Clear
Clear
 Wind from S
Wind: S 7 mph , 11 km/h
Temperature: 32°F , 0°C
Wind Chill: 25°F , -4°C
Dew Point: 16°F , -9°C
Humidity: 51%
Barometer: 30.16 inHg , 1021.3 hPa
Clouds: Clear
Visibility: 10 miles , 16 km
2018/01/19 09:35 KGMJ 190935Z AUTO 19006KT 10SM CLR 00/M09 A3016 RMK AO2
 
KPNC - Ponca City, Oklahoma, USA
Distance from station: W 69mi, 111km
Updated: Fri, 19-Jan-2018 2:53am CST
Clear
Clear
 Wind from S
Wind: S 8 mph , 13 km/h
Temperature: 32°F , 0°C
Wind Chill: 25°F , -4°C
Dew Point: 12°F , -11°C
Humidity: 44%
Barometer: 30.07 inHg , 1018.3 hPa
Clouds: Clear
Visibility: 10 miles , 16 km
2018/01/19 08:53 KPNC 190853Z AUTO 18007KT 10SM CLR 00/M11 A3007 RMK AO2 SLP186 T00001106 56018
KCNU - Chanute, Kansas, USA
Distance from station: NNE 69mi, 112km
Updated: Fri, 19-Jan-2018 2:52am CST
Clear
Clear
 Wind from S
Wind: S 14 mph , 22 km/h
Temperature: 30°F , -1°C
Wind Chill: 19°F , -7°C
Dew Point: 16°F , -9°C
Humidity: 55%
Barometer: 30.08 inHg , 1018.6 hPa
Clouds: Clear
Visibility: 10 miles , 16 km
2018/01/19 08:52 KCNU 190852Z AUTO 18012KT 10SM CLR M01/M09 A3008 RMK AO2 SLP190 T10061094 56014